createdAt,value
2022-11-15T00:01:31.058Z,24.97
2022-11-15T00:04:16.989Z,15.73
2022-11-15T00:07:02.413Z,14.98
2022-11-15T00:09:47.910Z,14.57
2022-11-15T00:12:33.530Z,20.38
2022-11-15T00:15:18.874Z,16.37
2022-11-15T00:18:05.235Z,15.82
2022-11-15T00:20:50.226Z,17.15
2022-11-15T00:23:35.964Z,15.63
2022-11-15T00:26:21.058Z,14.48
2022-11-15T00:29:06.854Z,12.17
2022-11-15T00:31:51.940Z,11.55
2022-11-15T00:34:37.690Z,15.07
2022-11-15T00:37:23.144Z,14.40
2022-11-15T00:40:10.369Z,14.30
2022-11-15T00:42:56.310Z,17.40
2022-11-15T00:45:41.636Z,15.85
2022-11-15T00:48:27.008Z,17.77
2022-11-15T00:51:12.342Z,16.35
2022-11-15T00:53:57.495Z,15.55
2022-11-15T00:56:42.917Z,20.20
2022-11-15T00:59:28.280Z,23.10
2022-11-15T01:02:14.547Z,20.77
2022-11-15T01:05:00.044Z,19.73
2022-11-15T01:07:45.798Z,26.77
2022-11-15T01:10:31.010Z,19.07
2022-11-15T01:13:16.325Z,23.88
2022-11-15T01:16:11.894Z,17.13
2022-11-15T01:18:57.608Z,24.13
2022-11-15T01:21:42.791Z,27.92
2022-11-15T01:24:28.254Z,21.47
2022-11-15T01:27:13.680Z,20.00
2022-11-15T01:29:58.909Z,21.48
2022-11-15T01:32:44.152Z,16.50
2022-11-15T01:35:29.542Z,13.48
2022-11-15T01:38:15.015Z,11.00
2022-11-15T01:41:00.717Z,16.80
2022-11-15T01:43:48.404Z,13.93
2022-11-15T01:46:38.760Z,13.40
2022-11-15T01:49:25.396Z,11.38
2022-11-15T01:52:14.993Z,12.87
2022-11-15T01:55:15.825Z,11.98
2022-11-15T01:58:05.352Z,11.52
2022-11-15T02:00:51.320Z,16.35
2022-11-15T02:03:45.116Z,15.65
2022-11-15T02:06:31.368Z,13.33
2022-11-15T02:09:18.455Z,15.25
2022-11-15T02:12:04.273Z,22.98
2022-11-15T02:14:54.352Z,21.23
2022-11-15T02:17:58.416Z,19.17
2022-11-15T02:20:46.698Z,22.27
2022-11-15T02:23:53.662Z,20.15
2022-11-15T02:27:04.948Z,16.40
2022-11-15T02:30:27.695Z,18.45
2022-11-15T02:33:19.147Z,22.17
2022-11-15T02:36:14.141Z,22.73
2022-11-15T02:39:16.145Z,20.92
2022-11-15T02:42:34.081Z,18.75
2022-11-15T02:45:28.115Z,19.15
2022-11-15T02:48:15.199Z,18.77
2022-11-15T02:51:02.025Z,15.90
2022-11-15T02:53:47.111Z,16.23
2022-11-15T02:56:32.782Z,17.65
2022-11-15T02:59:55.549Z,18.23
2022-11-15T03:03:02.480Z,16.40
2022-11-15T03:06:24.415Z,12.47
2022-11-15T03:09:33.435Z,14.23
2022-11-15T03:12:36.736Z,13.82
2022-11-15T03:15:29.072Z,13.13
2022-11-15T03:18:22.722Z,11.15
2022-11-15T03:21:12.772Z,13.20
2022-11-15T03:24:00.026Z,14.55
2022-11-15T03:26:48.866Z,13.55
2022-11-15T03:29:39.253Z,15.15
2022-11-15T03:32:28.971Z,15.70
2022-11-15T03:35:19.932Z,14.67
2022-11-15T03:38:25.568Z,14.32
2022-11-15T03:41:23.200Z,16.05
2022-11-15T03:44:46.848Z,16.33
2022-11-15T03:47:44.646Z,15.95
2022-11-15T03:50:30.583Z,14.23
2022-11-15T03:53:16.184Z,14.52
2022-11-15T03:56:01.724Z,12.10
2022-11-15T03:58:46.959Z,15.75
2022-11-15T04:01:32.714Z,13.07
2022-11-15T04:04:18.032Z,13.30
2022-11-15T04:07:03.685Z,11.82
2022-11-15T04:10:03.722Z,14.20
2022-11-15T04:12:49.064Z,15.98
2022-11-15T04:15:34.083Z,16.98
2022-11-15T04:18:19.770Z,11.03
2022-11-15T04:21:23.955Z,15.65
2022-11-15T04:24:15.409Z,10.55
2022-11-15T04:27:01.140Z,10.60
2022-11-15T04:29:46.833Z,10.35
2022-11-15T04:32:31.920Z,14.20
2022-11-15T04:35:17.256Z,11.55
2022-11-15T04:38:04.353Z,11.45
2022-11-15T04:40:49.857Z,10.98
2022-11-15T04:43:35.124Z,10.85
2022-11-15T04:46:20.884Z,10.17
2022-11-15T04:49:05.931Z,13.23
2022-11-15T04:51:51.550Z,11.10
2022-11-15T04:54:36.487Z,10.05
2022-11-15T04:57:21.838Z,9.07
2022-11-15T05:00:14.088Z,9.23
2022-11-15T05:03:18.007Z,9.45
2022-11-15T05:06:03.400Z,7.95
2022-11-15T05:08:48.983Z,9.75
2022-11-15T05:11:34.483Z,10.18
2022-11-15T05:14:19.848Z,8.87
2022-11-15T05:17:05.019Z,10.07
2022-11-15T05:19:52.853Z,10.02
2022-11-15T05:22:38.326Z,11.63
2022-11-15T05:25:24.025Z,7.65
2022-11-15T05:28:09.714Z,7.40
2022-11-15T05:31:11.266Z,9.18
2022-11-15T05:33:57.485Z,11.43
2022-11-15T05:36:44.256Z,16.33
2022-11-15T05:39:29.964Z,15.20
2022-11-15T05:42:16.439Z,13.70
2022-11-15T05:45:05.124Z,10.77
2022-11-15T05:47:51.587Z,10.63
2022-11-15T05:50:40.404Z,10.00
2022-11-15T05:53:26.974Z,9.60
2022-11-15T05:56:13.516Z,7.47
2022-11-15T05:59:00.287Z,11.77
2022-11-15T06:01:46.127Z,8.52
2022-11-15T06:04:31.906Z,8.18
2022-11-15T06:07:17.067Z,9.63
2022-11-15T06:10:02.742Z,7.60
2022-11-15T06:12:47.707Z,8.35
2022-11-15T06:15:35.223Z,8.20
2022-11-15T06:18:20.667Z,17.88
2022-11-15T06:21:06.295Z,16.17
2022-11-15T06:23:51.361Z,18.50
2022-11-15T06:26:36.929Z,20.27
2022-11-15T06:29:22.257Z,21.83
2022-11-15T06:32:07.675Z,22.67
2022-11-15T06:34:53.039Z,21.33
2022-11-15T06:37:38.577Z,17.67
2022-11-15T06:40:23.709Z,22.70
2022-11-15T06:43:09.207Z,19.33
2022-11-15T06:45:54.376Z,17.83
2022-11-15T06:48:40.445Z,21.90
2022-11-15T06:51:25.672Z,28.17
2022-11-15T06:54:11.004Z,24.48
2022-11-15T06:56:56.104Z,19.88
2022-11-15T06:59:42.104Z,17.60
2022-11-15T07:02:27.430Z,15.07
2022-11-15T07:05:13.463Z,16.57
2022-11-15T07:07:59.872Z,17.70
2022-11-15T07:10:45.333Z,19.38
2022-11-15T07:13:34.621Z,15.60
2022-11-15T07:16:20.924Z,14.45
2022-11-15T07:19:05.840Z,16.27
2022-11-15T07:21:51.437Z,15.65
2022-11-15T07:24:36.614Z,14.90
2022-11-15T07:27:22.272Z,12.68
2022-11-15T07:30:08.439Z,16.52
2022-11-15T07:33:01.333Z,15.50
2022-11-15T07:35:49.869Z,14.30
2022-11-15T07:38:41.223Z,13.25
2022-11-15T07:41:27.764Z,16.55
2022-11-15T07:44:13.266Z,11.43
2022-11-15T07:46:59.151Z,10.63
2022-11-15T07:49:44.765Z,12.65
2022-11-15T07:52:29.785Z,11.75
2022-11-15T07:55:15.233Z,9.30
2022-11-15T07:58:12.075Z,9.77
2022-11-15T08:00:57.537Z,9.47
2022-11-15T08:03:43.061Z,10.68
2022-11-15T08:06:28.727Z,9.93
2022-11-15T08:09:14.783Z,10.15
2022-11-15T08:12:00.215Z,13.50
2022-11-15T08:14:45.679Z,10.10
2022-11-15T08:17:33.736Z,12.32
2022-11-15T08:20:20.467Z,14.85
2022-11-15T08:23:06.690Z,14.13
2022-11-15T08:25:51.711Z,13.57
2022-11-15T08:28:37.037Z,15.60
2022-11-15T08:31:22.254Z,13.65
2022-11-15T08:34:07.712Z,11.85
2022-11-15T08:36:52.940Z,9.93
2022-11-15T08:39:39.069Z,9.63
2022-11-15T08:42:24.165Z,8.27
2022-11-15T08:45:10.062Z,8.60
2022-11-15T08:47:55.669Z,10.85
2022-11-15T08:50:41.007Z,8.30
2022-11-15T08:53:26.242Z,8.80
2022-11-15T08:56:14.565Z,8.63
2022-11-15T08:58:59.935Z,10.60
2022-11-15T09:01:45.358Z,10.55
2022-11-15T09:04:31.217Z,6.80
2022-11-15T09:07:17.201Z,9.57
2022-11-15T09:10:02.707Z,9.77
2022-11-15T09:12:51.792Z,9.82
2022-11-15T09:15:36.791Z,10.57
2022-11-15T09:18:23.682Z,9.13
2022-11-15T09:21:09.825Z,9.27
2022-11-15T09:23:55.366Z,15.17
2022-11-15T09:26:41.134Z,11.80
2022-11-15T09:29:26.446Z,16.27
2022-11-15T09:32:11.625Z,14.48
2022-11-15T09:34:58.473Z,15.57
2022-11-15T09:37:44.318Z,26.20
2022-11-15T09:40:33.231Z,17.75
2022-11-15T09:43:28.284Z,18.17
2022-11-15T09:46:29.107Z,18.13
2022-11-15T09:49:17.183Z,17.40
2022-11-15T09:52:04.837Z,21.93
2022-11-15T09:54:54.028Z,22.63
2022-11-15T09:57:29.776Z,22.90
2022-11-15T09:59:56.387Z,15.52
2022-11-15T10:03:03.472Z,13.40
2022-11-15T10:05:31.476Z,19.27
2022-11-15T10:08:29.606Z,22.08
2022-11-15T10:11:30.619Z,19.00
2022-11-15T10:13:51.758Z,22.08
2022-11-15T10:16:27.435Z,11.60
2022-11-15T10:19:10.620Z,11.33
2022-11-15T10:22:05.086Z,11.45
2022-11-15T10:24:36.822Z,12.82
2022-11-15T10:27:12.373Z,12.98
2022-11-15T10:30:10.902Z,13.88
2022-11-15T10:32:37.588Z,12.70
2022-11-15T10:35:25.326Z,12.63
2022-11-15T10:37:52.051Z,16.80
2022-11-15T10:40:22.237Z,17.65
2022-11-15T10:43:05.244Z,15.20
2022-11-15T10:45:34.291Z,13.90
2022-11-15T10:48:13.180Z,16.30
2022-11-15T10:50:43.004Z,12.30
2022-11-15T10:53:32.011Z,12.55
2022-11-15T10:56:03.628Z,16.05
2022-11-15T10:58:43.921Z,17.92
2022-11-15T11:01:22.769Z,15.17
2022-11-15T11:04:04.017Z,13.52
2022-11-15T11:06:31.801Z,13.60
2022-11-15T11:09:06.860Z,18.58
2022-11-15T11:11:49.154Z,15.27
2022-11-15T11:14:24.234Z,16.17
2022-11-15T11:17:32.899Z,16.20
2022-11-15T11:20:24.265Z,10.98
2022-11-15T11:23:12.884Z,14.32
2022-11-15T11:25:51.293Z,15.30
2022-11-15T11:28:54.899Z,14.05
2022-11-15T11:31:56.024Z,13.75
2022-11-15T11:34:46.686Z,15.40
2022-11-15T11:37:40.848Z,17.40
2022-11-15T11:40:31.647Z,16.40
2022-11-15T11:43:34.691Z,14.55
2022-11-15T11:46:20.489Z,15.70
2022-11-15T11:49:10.873Z,16.37
2022-11-15T11:51:54.148Z,16.63
2022-11-15T11:54:31.766Z,15.88
2022-11-15T11:57:00.940Z,13.10
2022-11-15T11:59:44.711Z,19.38
2022-11-15T12:02:30.189Z,19.70
2022-11-15T12:05:13.175Z,19.65
2022-11-15T12:07:41.484Z,20.27
2022-11-15T12:10:27.295Z,18.27
2022-11-15T12:13:03.322Z,19.75
2022-11-15T12:15:40.366Z,26.73
2022-11-15T12:18:13.537Z,29.20
2022-11-15T12:20:44.304Z,38.60
2022-11-15T12:23:23.630Z,31.05
2022-11-15T12:25:53.408Z,25.55
2022-11-15T12:28:31.860Z,28.63
2022-11-15T12:31:18.429Z,24.60
2022-11-15T12:33:48.404Z,16.77
2022-11-15T12:36:21.234Z,14.23
2022-11-15T12:39:01.506Z,18.58
2022-11-15T12:41:49.391Z,22.07
2022-11-15T12:44:31.855Z,18.10
2022-11-15T12:46:58.423Z,20.00
2022-11-15T12:49:28.288Z,16.15
2022-11-15T12:51:58.011Z,17.98
2022-11-15T12:54:24.863Z,23.57
2022-11-15T12:57:03.864Z,23.98
2022-11-15T12:59:53.021Z,14.50
2022-11-15T13:02:22.518Z,17.75
2022-11-15T13:04:50.774Z,11.20
2022-11-15T13:07:56.557Z,9.40
2022-11-15T13:10:28.019Z,11.15
2022-11-15T13:12:56.641Z,9.20
2022-11-15T13:15:54.209Z,11.20
2022-11-15T13:18:40.636Z,11.07
2022-11-15T13:21:41.277Z,11.90
2022-11-15T13:24:14.734Z,10.70
2022-11-15T13:26:41.787Z,12.88
2022-11-15T13:29:20.152Z,10.57
2022-11-15T13:31:47.887Z,11.82
2022-11-15T13:37:31.888Z,10.98
2022-11-15T13:40:16.856Z,10.38
2022-11-15T13:42:45.851Z,9.35
2022-11-15T13:45:16.992Z,11.73
2022-11-15T13:47:44.001Z,10.40
2022-11-15T13:50:14.834Z,9.30
2022-11-15T13:52:45.365Z,10.93
2022-11-15T13:55:22.467Z,11.63
2022-11-15T13:57:53.550Z,10.88
2022-11-15T14:00:37.866Z,14.85
2022-11-15T14:03:09.340Z,13.57
2022-11-15T14:05:36.164Z,11.73
2022-11-15T14:08:21.317Z,12.27
2022-11-15T14:10:48.092Z,12.65
2022-11-15T14:13:41.591Z,10.85
2022-11-15T14:16:21.579Z,11.07
2022-11-15T14:18:51.861Z,11.10
2022-11-15T14:21:20.031Z,10.00
2022-11-15T14:23:47.355Z,11.35
2022-11-15T14:26:46.685Z,12.70
2022-11-15T14:29:27.128Z,11.83
2022-11-15T14:32:15.074Z,11.30
2022-11-15T14:34:42.313Z,12.00
2022-11-15T14:37:38.401Z,12.35
2022-11-15T14:40:06.912Z,11.15
2022-11-15T14:42:33.653Z,11.47
2022-11-15T14:45:00.673Z,10.73
2022-11-15T14:47:27.320Z,10.88
2022-11-15T14:49:54.267Z,11.73
2022-11-15T14:52:34.399Z,10.30
2022-11-15T14:55:03.749Z,10.37
2022-11-15T14:57:31.168Z,12.27
2022-11-15T14:59:58.077Z,14.40
2022-11-15T15:02:38.735Z,13.48
2022-11-15T15:05:16.242Z,16.27
2022-11-15T15:07:43.382Z,14.97
2022-11-15T15:10:38.338Z,14.23
2022-11-15T15:12:57.586Z,13.45
2022-11-15T15:15:35.253Z,13.55
2022-11-15T15:18:02.489Z,14.10
2022-11-15T15:20:30.471Z,12.80
2022-11-15T15:22:57.116Z,22.08
2022-11-15T15:25:27.950Z,16.73
2022-11-15T15:27:55.989Z,17.63
2022-11-15T15:30:24.198Z,17.10
2022-11-15T15:32:51.076Z,17.20
2022-11-15T15:35:19.366Z,16.70
2022-11-15T15:37:47.584Z,14.43
2022-11-15T15:40:23.064Z,14.93
2022-11-15T15:42:50.343Z,11.45
2022-11-15T15:45:18.625Z,11.57
2022-11-15T15:47:46.875Z,11.77
2022-11-15T15:50:35.266Z,12.50
2022-11-15T15:53:04.560Z,14.07
2022-11-15T15:55:32.250Z,13.45
2022-11-15T15:57:58.907Z,13.67
2022-11-15T16:00:26.497Z,16.95
2022-11-15T16:02:55.207Z,12.88
2022-11-15T16:05:23.240Z,13.30
2022-11-15T16:07:50.395Z,12.02
2022-11-15T16:10:32.291Z,13.63
2022-11-15T16:12:59.154Z,13.23
2022-11-15T16:15:28.845Z,11.70
2022-11-15T16:17:57.940Z,11.68
2022-11-15T16:20:32.956Z,11.68
2022-11-15T16:23:04.369Z,11.17
2022-11-15T16:25:56.373Z,19.88
2022-11-15T16:28:24.280Z,18.95
2022-11-15T16:31:01.405Z,18.52
2022-11-15T16:33:28.077Z,16.95
2022-11-15T16:35:54.996Z,14.43
2022-11-15T16:38:21.634Z,13.73
2022-11-15T16:40:48.812Z,13.55
2022-11-15T16:43:15.484Z,14.10
2022-11-15T16:45:42.560Z,14.50
2022-11-15T16:48:22.055Z,19.93
2022-11-15T16:50:49.162Z,23.25
2022-11-15T16:53:15.863Z,16.55
2022-11-15T16:55:42.927Z,15.80
2022-11-15T16:58:10.562Z,12.38
2022-11-15T17:00:37.527Z,15.80
2022-11-15T17:03:04.853Z,17.17
2022-11-15T17:05:31.798Z,15.18
2022-11-15T17:07:58.628Z,17.08
2022-11-15T17:10:27.167Z,16.23
2022-11-15T17:12:55.619Z,18.77
2022-11-15T17:15:24.616Z,18.47
2022-11-15T17:17:53.650Z,21.60
2022-11-15T17:20:23.156Z,22.80
2022-11-15T17:22:50.616Z,30.30
2022-11-15T17:25:17.676Z,22.73
2022-11-15T17:27:44.374Z,18.03
2022-11-15T17:30:15.215Z,17.33
2022-11-15T17:32:43.081Z,15.55
2022-11-15T17:35:15.396Z,19.05
2022-11-15T17:37:42.854Z,15.57
2022-11-15T17:40:10.381Z,13.17
2022-11-15T17:42:37.364Z,13.00
2022-11-15T17:45:09.548Z,15.10
2022-11-15T17:47:37.527Z,11.65
2022-11-15T17:50:05.066Z,9.68
2022-11-15T17:52:31.722Z,16.93
2022-11-15T17:54:58.608Z,19.50
2022-11-15T17:57:25.311Z,17.75
2022-11-15T17:59:52.430Z,16.77
2022-11-15T18:02:19.545Z,16.80
2022-11-15T18:04:46.507Z,16.97
2022-11-15T18:07:14.192Z,16.95
2022-11-15T18:09:44.139Z,14.95
2022-11-15T18:12:12.101Z,14.98
2022-11-15T18:14:39.279Z,12.90
2022-11-15T18:17:06.019Z,16.67
2022-11-15T18:19:33.663Z,17.50
2022-11-15T18:22:01.411Z,16.73
2022-11-15T18:24:29.642Z,21.30
2022-11-15T18:26:57.604Z,18.23
2022-11-15T18:29:24.925Z,21.77
2022-11-15T18:31:55.475Z,18.08
2022-11-15T18:34:24.040Z,16.40
2022-11-15T18:37:03.503Z,16.08
2022-11-15T18:39:30.544Z,17.20
2022-11-15T18:41:58.176Z,20.10
2022-11-15T18:44:25.433Z,19.77
2022-11-15T18:46:52.397Z,18.33
2022-11-15T18:49:20.345Z,18.92
2022-11-15T18:51:47.484Z,17.27
2022-11-15T18:54:16.279Z,16.53
2022-11-15T18:56:46.917Z,17.35
2022-11-15T18:59:14.677Z,18.15
2022-11-15T19:01:47.163Z,19.27
2022-11-15T19:04:18.452Z,15.45
2022-11-15T19:06:49.987Z,18.03
2022-11-15T19:09:18.717Z,17.65
2022-11-15T19:11:47.201Z,18.75
2022-11-15T19:14:17.988Z,15.48
2022-11-15T19:16:50.086Z,16.00
2022-11-15T19:19:23.801Z,18.07
2022-11-15T19:21:51.650Z,16.17
2022-11-15T19:24:19.605Z,16.35
2022-11-15T19:26:46.947Z,16.00
2022-11-15T19:29:14.318Z,17.92
2022-11-15T19:31:42.071Z,19.40
2022-11-15T19:34:09.546Z,15.85
2022-11-15T19:36:38.957Z,19.40
2022-11-15T19:39:09.923Z,20.80
2022-11-15T19:41:38.669Z,17.08
2022-11-15T19:44:06.840Z,15.77
2022-11-15T19:46:35.061Z,14.63
2022-11-15T19:49:07.181Z,16.58
2022-11-15T19:51:34.102Z,19.67
2022-11-15T19:54:06.496Z,27.30
2022-11-15T19:56:34.727Z,27.13
2022-11-15T19:59:03.300Z,32.22
2022-11-15T20:01:32.815Z,39.67
2022-11-15T20:04:00.260Z,26.30
2022-11-15T20:06:32.747Z,22.00
2022-11-15T20:09:00.707Z,18.80
2022-11-15T20:11:27.765Z,18.85
2022-11-15T20:13:59.610Z,17.70
2022-11-15T20:16:26.546Z,16.77
2022-11-15T20:18:53.697Z,19.70
2022-11-15T20:21:22.027Z,20.60
2022-11-15T20:23:51.073Z,18.27
2022-11-15T20:26:19.573Z,18.88
2022-11-15T20:28:48.044Z,23.75
2022-11-15T20:31:15.484Z,26.35
2022-11-15T20:33:42.854Z,22.13
2022-11-15T20:36:15.582Z,18.33
2022-11-15T20:38:43.652Z,24.25
2022-11-15T20:41:11.985Z,25.83
2022-11-15T20:43:41.666Z,26.23
2022-11-15T20:46:08.289Z,23.53
2022-11-15T20:48:36.191Z,23.23
2022-11-15T20:51:15.012Z,19.70
2022-11-15T20:53:42.783Z,18.15
2022-11-15T20:56:18.994Z,20.60
2022-11-15T20:58:47.558Z,21.17
2022-11-15T21:01:15.481Z,20.80
2022-11-15T21:03:42.632Z,19.75
2022-11-15T21:06:10.047Z,17.88
2022-11-15T21:08:56.098Z,17.90
2022-11-15T21:11:43.270Z,17.63
2022-11-15T21:14:10.234Z,16.98
2022-11-15T21:16:37.984Z,18.33
2022-11-15T21:19:06.152Z,14.88
2022-11-15T21:21:32.984Z,17.95
2022-11-15T21:24:00.057Z,17.40
2022-11-15T21:26:27.112Z,16.55
2022-11-15T21:28:54.028Z,15.73
2022-11-15T21:31:20.720Z,16.90
2022-11-15T21:33:47.800Z,18.30
2022-11-15T21:36:14.532Z,18.00
2022-11-15T21:38:41.407Z,16.63
2022-11-15T21:41:08.263Z,18.55
2022-11-15T21:43:35.317Z,12.02
2022-11-15T21:46:06.597Z,14.43
2022-11-15T21:48:35.921Z,11.20
2022-11-15T21:51:07.772Z,50.15
2022-11-15T21:53:35.036Z,51.63
2022-11-15T21:56:02.626Z,53.50
2022-11-15T21:58:31.081Z,177.70
2022-11-15T22:01:17.763Z,178.20
2022-11-15T22:03:45.436Z,58.92
2022-11-15T22:06:17.591Z,38.13
2022-11-15T22:08:46.175Z,18.02
2022-11-15T22:11:13.567Z,14.75
2022-11-15T22:13:40.968Z,12.23
2022-11-15T22:16:08.527Z,14.07
2022-11-15T22:18:36.118Z,19.90
2022-11-15T22:21:05.727Z,17.70
2022-11-15T22:23:35.022Z,11.85
2022-11-15T22:26:02.137Z,13.23
2022-11-15T22:28:30.412Z,13.32
2022-11-15T22:30:57.779Z,14.75
2022-11-15T22:33:27.961Z,19.33
2022-11-15T22:35:55.806Z,17.48
2022-11-15T22:38:22.808Z,14.37
2022-11-15T22:40:50.179Z,13.60
2022-11-15T22:43:18.874Z,10.73
2022-11-15T22:45:51.527Z,11.65
2022-11-15T22:48:23.947Z,12.00
2022-11-15T22:50:51.160Z,15.00
2022-11-15T22:53:18.882Z,17.40
2022-11-15T22:55:53.116Z,17.40
2022-11-15T22:58:21.659Z,15.52
2022-11-15T23:00:53.221Z,12.15
2022-11-15T23:03:20.718Z,12.53
2022-11-15T23:05:47.848Z,11.00
2022-11-15T23:08:15.344Z,10.65
2022-11-15T23:11:01.318Z,10.50
2022-11-15T23:13:30.402Z,15.05
2022-11-15T23:16:22.995Z,11.83
2022-11-15T23:18:56.375Z,10.70
2022-11-15T23:21:43.019Z,10.75
2022-11-15T23:24:11.918Z,9.57
2022-11-15T23:26:38.921Z,10.68
2022-11-15T23:29:07.805Z,10.77
2022-11-15T23:32:01.220Z,11.38
2022-11-15T23:34:35.148Z,15.30
2022-11-15T23:37:01.959Z,14.82
2022-11-15T23:39:28.961Z,16.85
2022-11-15T23:41:56.097Z,14.40
2022-11-15T23:44:23.677Z,14.13
2022-11-15T23:46:50.630Z,16.40
2022-11-15T23:49:17.604Z,12.05
2022-11-15T23:51:44.313Z,10.52
2022-11-15T23:54:11.868Z,11.50
2022-11-15T23:56:38.584Z,11.95
2022-11-15T23:59:06.166Z,13.70
